createdAt,value
2024-02-19T00:05:14.412Z,0.65
2024-02-19T00:10:54.578Z,0.62
2024-02-19T00:16:35.269Z,0.55
2024-02-19T00:22:15.191Z,0.55
2024-02-19T00:27:56.533Z,0.57
2024-02-19T00:33:36.891Z,0.57
2024-02-19T00:39:17.282Z,0.51
2024-02-19T00:44:57.462Z,0.52
2024-02-19T00:50:37.618Z,0.35
2024-02-19T00:56:17.828Z,0.35
2024-02-19T01:05:18.726Z,0.48
2024-02-19T01:10:58.994Z,0.43
2024-02-19T01:16:41.146Z,0.39
2024-02-19T01:22:21.239Z,0.41
2024-02-19T01:28:02.016Z,0.41
2024-02-19T01:33:42.045Z,0.40
2024-02-19T01:39:22.403Z,0.40
2024-02-19T01:45:04.108Z,0.33
2024-02-19T01:50:48.181Z,0.34
2024-02-19T01:56:28.632Z,0.31
2024-02-19T02:02:09.853Z,0.28
2024-02-19T02:07:50.073Z,0.25
2024-02-19T02:13:30.000Z,0.26
2024-02-19T02:19:14.232Z,0.21
2024-02-19T02:24:54.550Z,0.19
2024-02-19T02:30:34.729Z,0.19
2024-02-19T02:36:14.980Z,0.20
2024-02-19T02:41:54.943Z,0.17
2024-02-19T02:47:35.573Z,0.10
2024-02-19T02:53:15.883Z,0.04
2024-02-19T02:58:56.616Z,0.04
2024-02-19T03:04:37.192Z,0.07
2024-02-19T03:10:18.494Z,0.05
2024-02-19T03:15:59.054Z,0.00
2024-02-19T03:21:41.785Z,0.00
2024-02-19T03:27:23.211Z,-0.05
2024-02-19T03:33:04.464Z,-0.09
2024-02-19T03:38:44.952Z,-0.20
2024-02-19T03:44:27.529Z,-0.36
2024-02-19T03:50:08.082Z,-0.51
2024-02-19T03:55:48.352Z,-0.62
2024-02-19T04:05:22.488Z,-0.71
2024-02-19T06:05:27.405Z,-1.29
2024-02-19T06:11:08.069Z,-1.25
2024-02-19T06:16:48.730Z,-1.11
2024-02-19T06:22:29.034Z,-1.04
2024-02-19T06:28:09.494Z,-0.91
2024-02-19T06:33:49.950Z,-0.84
2024-02-19T06:39:30.751Z,-0.76
2024-02-19T06:45:11.286Z,-0.67
2024-02-19T06:50:51.832Z,-0.54
2024-02-19T06:56:32.137Z,-0.44
2024-02-19T07:02:12.652Z,-0.31
2024-02-19T07:07:54.283Z,-0.26
2024-02-19T07:13:34.900Z,-0.12
2024-02-19T07:19:15.485Z,-0.03
2024-02-19T07:25:05.738Z,0.03
2024-02-19T07:30:39.618Z,0.04
2024-02-19T07:36:20.095Z,0.09
2024-02-19T07:42:00.871Z,0.28
2024-02-19T07:47:41.928Z,0.39
2024-02-19T07:53:23.588Z,0.54
2024-02-19T07:59:04.238Z,0.71
2024-02-19T08:04:44.718Z,0.83
2024-02-19T08:10:25.543Z,0.93
2024-02-19T08:16:06.622Z,0.81
2024-02-19T08:21:49.071Z,0.96
2024-02-19T08:27:29.286Z,1.14
2024-02-19T08:33:09.650Z,1.19
2024-02-19T08:38:53.117Z,1.36
2024-02-19T08:44:33.825Z,1.55
2024-02-19T08:50:14.535Z,1.58
2024-02-19T08:55:55.433Z,1.61
2024-02-19T09:01:36.138Z,1.76
2024-02-19T09:07:16.576Z,1.87
2024-02-19T09:12:57.568Z,1.96
2024-02-19T09:18:38.952Z,1.95
2024-02-19T09:24:20.438Z,2.04
2024-02-19T09:30:00.773Z,2.21
2024-02-19T09:35:40.893Z,2.19
2024-02-19T09:41:21.584Z,2.24
2024-02-19T09:47:05.108Z,2.27
2024-02-19T09:52:46.163Z,2.44
2024-02-19T09:58:27.850Z,2.69
2024-02-19T10:05:27.221Z,2.91
2024-02-19T10:11:11.507Z,2.93
2024-02-19T10:16:53.178Z,2.85
2024-02-19T10:22:33.884Z,3.02
2024-02-19T10:28:14.160Z,3.22
2024-02-19T10:33:55.043Z,3.21
2024-02-19T10:39:35.927Z,3.16
2024-02-19T10:45:18.438Z,3.10
2024-02-19T10:50:59.362Z,3.42
2024-02-19T10:56:43.821Z,3.41
2024-02-19T11:02:25.797Z,3.29
2024-02-19T11:08:07.903Z,3.37
2024-02-19T11:13:48.914Z,3.35
2024-02-19T11:19:30.661Z,3.46
2024-02-19T11:25:11.543Z,3.50
2024-02-19T11:31:02.035Z,3.43
2024-02-19T11:36:43.510Z,3.29
2024-02-19T11:42:24.577Z,3.35
2024-02-19T11:48:06.257Z,3.62
2024-02-19T11:53:46.605Z,3.69
2024-02-19T11:59:27.494Z,3.71
2024-02-19T12:05:07.929Z,3.73
2024-02-19T12:10:47.995Z,3.81
2024-02-19T12:16:29.012Z,3.66
2024-02-19T12:22:09.429Z,3.54
2024-02-19T12:27:49.444Z,3.43
2024-02-19T12:33:29.560Z,3.31
2024-02-19T12:39:11.225Z,3.50
2024-02-19T12:44:52.260Z,3.51
2024-02-19T12:50:33.571Z,3.41
2024-02-19T12:56:14.133Z,3.26
2024-02-19T13:05:21.762Z,3.31
2024-02-19T13:11:02.399Z,3.35
2024-02-19T13:16:44.733Z,3.23
2024-02-19T13:22:26.710Z,3.31
2024-02-19T13:28:08.628Z,3.23
2024-02-19T13:33:48.491Z,3.27
2024-02-19T13:39:29.140Z,3.20
2024-02-19T13:45:10.673Z,3.05
2024-02-19T13:50:56.095Z,3.06
2024-02-19T13:56:37.127Z,2.91
2024-02-19T14:02:17.640Z,3.12
2024-02-19T14:07:57.995Z,2.92
2024-02-19T14:13:46.532Z,2.83
2024-02-19T14:19:20.414Z,2.75
2024-02-19T14:25:00.850Z,2.93
2024-02-19T14:30:41.349Z,3.05
2024-02-19T14:36:22.706Z,3.11
2024-02-19T14:42:02.808Z,2.81
2024-02-19T14:47:45.724Z,2.37
2024-02-19T14:53:25.569Z,2.04
2024-02-19T14:59:06.226Z,1.78
2024-02-19T15:04:46.863Z,1.47
2024-02-19T15:10:27.311Z,1.28
2024-02-19T15:16:07.976Z,1.07
2024-02-19T15:21:48.146Z,0.91
2024-02-19T15:27:28.234Z,0.82
2024-02-19T15:33:08.489Z,0.68
2024-02-19T15:38:50.934Z,0.60
2024-02-19T15:44:31.986Z,0.42
2024-02-19T15:50:12.669Z,0.32
2024-02-19T15:55:56.483Z,0.03
2024-02-19T16:05:30.547Z,0.08
2024-02-19T16:11:11.407Z,-0.14
2024-02-19T16:16:51.945Z,-0.18
2024-02-19T16:22:32.971Z,-0.27
2024-02-19T16:28:15.421Z,-0.35
2024-02-19T16:33:55.677Z,-0.47
2024-02-19T16:39:35.615Z,-0.60
2024-02-19T16:45:15.897Z,-0.71
2024-02-19T16:50:57.813Z,-0.80
2024-02-19T16:56:37.868Z,-0.91
2024-02-19T17:02:17.860Z,-0.91
2024-02-19T17:07:57.654Z,-0.92
2024-02-19T17:13:38.153Z,-0.94
2024-02-19T17:19:19.912Z,-0.98
2024-02-19T17:25:00.533Z,-1.01
2024-02-19T17:30:42.708Z,-1.11
2024-02-19T17:36:24.116Z,-1.18
2024-02-19T17:42:04.712Z,-1.25
2024-02-19T17:47:47.310Z,-1.29
2024-02-19T17:53:27.769Z,-1.38
2024-02-19T17:59:12.539Z,-1.44
2024-02-19T18:04:56.228Z,-1.46
2024-02-19T18:10:36.292Z,-1.56
2024-02-19T18:16:16.966Z,-1.58
2024-02-19T18:21:58.885Z,-1.63
2024-02-19T18:27:39.342Z,-1.56
2024-02-19T18:33:21.251Z,-1.59
2024-02-19T18:39:01.779Z,-1.58
2024-02-19T18:44:42.298Z,-1.59
2024-02-19T18:50:23.759Z,-1.55
2024-02-19T18:56:04.389Z,-1.56
2024-02-19T19:05:19.119Z,-1.54
2024-02-19T19:10:59.512Z,-1.67
2024-02-19T19:16:39.543Z,-1.70
2024-02-19T19:22:20.576Z,-1.73
2024-02-19T19:28:00.943Z,-1.79
2024-02-19T19:33:41.144Z,-1.82
2024-02-19T19:39:21.939Z,-1.85
2024-02-19T19:45:02.563Z,-1.85
2024-02-19T19:50:42.810Z,-1.87
2024-02-19T19:56:24.390Z,-1.91
2024-02-19T20:02:04.667Z,-1.99
2024-02-19T20:07:45.001Z,-2.00
2024-02-19T20:13:25.383Z,-2.10
2024-02-19T20:19:05.875Z,-2.12
2024-02-19T20:24:46.600Z,-2.17
2024-02-19T20:30:26.939Z,-2.23
2024-02-19T20:36:08.170Z,-2.28
2024-02-19T20:41:50.414Z,-2.32
2024-02-19T20:47:30.810Z,-2.38
2024-02-19T20:53:12.990Z,-2.44
2024-02-19T20:58:53.575Z,-2.53
2024-02-19T21:04:35.348Z,-2.58
2024-02-19T21:10:16.231Z,-2.65
2024-02-19T21:15:57.575Z,-2.68
2024-02-19T21:21:38.453Z,-2.73
2024-02-19T21:27:18.534Z,-2.80
2024-02-19T21:32:58.915Z,-2.82
2024-02-19T21:38:20.968Z,-2.81
2024-02-19T21:43:46.179Z,-2.90
2024-02-19T21:49:28.490Z,-2.92
2024-02-19T21:55:09.430Z,-2.98
2024-02-19T22:05:19.413Z,-2.97
2024-02-19T22:10:59.602Z,-3.13
2024-02-19T22:16:40.319Z,-3.16
2024-02-19T22:22:20.492Z,-3.17
2024-02-19T22:27:45.344Z,-3.13
2024-02-19T22:33:07.664Z,-3.16
2024-02-19T22:38:29.671Z,-3.16
2024-02-19T22:44:10.047Z,-3.15
2024-02-19T22:49:50.423Z,-3.19
2024-02-19T22:55:30.742Z,-3.25
2024-02-19T23:01:12.111Z,-3.28
2024-02-19T23:06:52.906Z,-3.32
2024-02-19T23:12:14.847Z,-3.31
2024-02-19T23:17:55.120Z,-3.31
2024-02-19T23:23:17.044Z,-3.39
2024-02-19T23:28:57.862Z,-3.41
2024-02-19T23:34:37.977Z,-3.47
2024-02-19T23:40:00.959Z,-3.51
2024-02-19T23:45:41.436Z,-3.53
2024-02-19T23:51:21.694Z,-3.64
2024-02-19T23:57:01.909Z,-3.64
